createdAt,value
2017-12-09T00:01:04.731Z,62.72
2017-12-09T00:02:13.901Z,62.72
2017-12-09T00:03:22.726Z,62.25
2017-12-09T00:04:31.549Z,62.53
2017-12-09T00:05:40.371Z,62.44
2017-12-09T00:06:49.344Z,62.25
2017-12-09T00:07:58.441Z,62.15
2017-12-09T00:09:07.263Z,61.96
2017-12-09T00:10:16.089Z,62.25
2017-12-09T00:11:24.910Z,62.44
2017-12-09T00:12:33.931Z,62.53
2017-12-09T00:13:42.756Z,62.34
2017-12-09T00:14:51.585Z,62.25
2017-12-09T00:16:00.400Z,62.15
2017-12-09T00:17:09.220Z,62.25
2017-12-09T00:18:18.242Z,62.25
2017-12-09T00:19:27.066Z,62.25
2017-12-09T00:20:35.888Z,62.63
2017-12-09T00:21:44.708Z,62.34
2017-12-09T00:22:53.531Z,62.25
2017-12-09T00:24:02.401Z,62.06
2017-12-09T00:25:11.259Z,62.91
2017-12-09T00:26:20.045Z,62.82
2017-12-09T00:27:29.141Z,62.06
2017-12-09T00:28:37.959Z,62.34
2017-12-09T00:29:46.931Z,62.72
2017-12-09T00:30:55.755Z,62.53
2017-12-09T00:32:04.853Z,63.01
2017-12-09T00:33:13.951Z,63.2
2017-12-09T00:34:22.773Z,63.01
2017-12-09T00:35:31.894Z,63.01
2017-12-09T00:36:40.717Z,63.01
2017-12-09T00:37:49.544Z,62.63
2017-12-09T00:38:58.361Z,63.1
2017-12-09T00:40:07.183Z,62.91
2017-12-09T00:41:16.005Z,62.82
2017-12-09T00:42:24.828Z,63.2
2017-12-09T00:43:33.652Z,62.91
2017-12-09T00:44:42.473Z,63.1
2017-12-09T00:45:51.294Z,62.91
2017-12-09T00:47:00.443Z,63.16
2017-12-09T00:48:09.269Z,62.91
2017-12-09T00:49:18.092Z,63.1
2017-12-09T00:50:26.916Z,63.1
2017-12-09T00:51:35.739Z,62.91
2017-12-09T00:52:44.713Z,63.01
2017-12-09T00:53:53.534Z,63.2
2017-12-09T00:55:02.359Z,62.72
2017-12-09T00:56:11.456Z,63.01
2017-12-09T00:57:20.282Z,63.1
2017-12-09T00:58:29.253Z,63.2
2017-12-09T00:59:38.077Z,63.48
2017-12-09T01:00:46.900Z,63.29
2017-12-09T01:01:55.721Z,63.01
2017-12-09T01:03:04.547Z,63.48
2017-12-09T01:04:13.666Z,63.85
2017-12-09T01:05:22.489Z,63.01
2017-12-09T01:06:31.309Z,63.57
2017-12-09T01:07:40.416Z,64.23
2017-12-09T01:08:49.230Z,64.14
2017-12-09T01:09:58.203Z,63.67
2017-12-09T01:11:07.026Z,63.85
2017-12-09T01:12:15.853Z,64.23
2017-12-09T01:13:24.669Z,63.95
2017-12-09T01:14:33.492Z,62.91
2017-12-09T01:15:42.518Z,63.76
2017-12-09T01:16:51.619Z,63.85
2017-12-09T01:18:00.441Z,64.14
2017-12-09T01:19:09.270Z,64.8
2017-12-09T01:20:18.366Z,64.8
2017-12-09T01:21:27.668Z,64.52
2017-12-09T01:22:36.491Z,64.8
2017-12-09T01:23:45.314Z,64.99
2017-12-09T01:24:54.137Z,64.99
2017-12-09T01:26:02.959Z,65.28
2017-12-09T01:27:11.879Z,65.66
2017-12-09T01:28:20.802Z,65.94
2017-12-09T01:29:29.625Z,65.75
2017-12-09T01:30:38.452Z,65.75
2017-12-09T01:31:47.276Z,66.6
2017-12-09T01:32:56.298Z,66.69
2017-12-09T01:34:05.122Z,66.88
2017-12-09T01:35:13.949Z,66.79
2017-12-09T01:36:22.772Z,66.6
2017-12-09T01:37:31.596Z,66.6
2017-12-09T01:38:40.520Z,66.6
2017-12-09T01:39:49.340Z,66.88
2017-12-09T01:40:58.162Z,66.98
2017-12-09T01:42:06.986Z,68.12
2017-12-09T01:43:16.086Z,68.02
2017-12-09T01:44:25.337Z,67.83
2017-12-09T01:45:34.159Z,68.59
2017-12-09T01:46:42.985Z,68.49
2017-12-09T01:47:51.808Z,68.59
2017-12-09T01:49:00.631Z,68.59
2017-12-09T01:50:09.602Z,68.4
2017-12-09T01:51:18.426Z,68.59
2017-12-09T01:52:27.247Z,68.4
2017-12-09T01:53:36.079Z,68.3
2017-12-09T01:54:45.171Z,68.12
2017-12-09T01:55:54.296Z,67.93
2017-12-09T01:57:03.395Z,68.3
2017-12-09T01:58:12.214Z,68.59
2017-12-09T01:59:21.316Z,68.68
2017-12-09T02:00:30.138Z,68.59
2017-12-09T02:01:39.059Z,68.68
2017-12-09T02:02:47.880Z,68.3
2017-12-09T02:03:56.701Z,67.26
2017-12-09T02:05:05.520Z,68.02
2017-12-09T02:06:14.350Z,68.59
2017-12-09T02:07:23.593Z,68.68
2017-12-09T02:08:32.417Z,67.93
2017-12-09T02:09:41.239Z,68.96
2017-12-09T02:10:50.060Z,68.4
2017-12-09T02:11:58.888Z,68.77
2017-12-09T02:13:08.015Z,67.17
2017-12-09T02:14:17.112Z,67.64
2017-12-09T02:15:25.933Z,67.55
2017-12-09T02:16:34.757Z,67.83
2017-12-09T02:17:43.577Z,67.74
2017-12-09T02:18:52.976Z,67.83
2017-12-09T02:20:01.799Z,67.83
2017-12-09T02:21:10.621Z,67.93
2017-12-09T02:22:19.444Z,67.17
2017-12-09T02:23:28.266Z,67.07
2017-12-09T02:24:37.241Z,66.79
2017-12-09T02:25:46.065Z,67.26
2017-12-09T02:26:54.887Z,67.07
2017-12-09T02:28:03.708Z,67.36
2017-12-09T02:29:12.530Z,67.36
2017-12-09T02:30:21.452Z,67.45
2017-12-09T02:31:30.278Z,67.36
2017-12-09T02:32:39.151Z,67.17
2017-12-09T02:33:47.972Z,67.17
2017-12-09T02:34:56.792Z,66.6
2017-12-09T02:36:05.914Z,66.69
2017-12-09T02:37:14.739Z,67.07
2017-12-09T02:38:23.562Z,67.07
2017-12-09T02:39:32.386Z,66.79
2017-12-09T02:40:41.210Z,66.88
2017-12-09T02:41:50.333Z,67.07
2017-12-09T02:42:59.154Z,66.79
2017-12-09T02:44:07.976Z,66.79
2017-12-09T02:45:16.798Z,66.98
2017-12-09T02:46:25.624Z,66.69
2017-12-09T02:47:34.446Z,66.79
2017-12-09T02:48:43.267Z,66.98
2017-12-09T02:49:52.090Z,67.07
2017-12-09T02:51:00.914Z,67.07
2017-12-09T02:52:09.739Z,66.69
2017-12-09T02:53:18.908Z,66.69
2017-12-09T02:54:27.739Z,66.22
2017-12-09T02:55:36.554Z,66.6
2017-12-09T02:56:45.376Z,66.69
2017-12-09T02:57:54.201Z,66.88
2017-12-09T02:59:03.170Z,66.98
2017-12-09T03:00:11.994Z,66.41
2017-12-09T03:01:20.814Z,67.07
2017-12-09T03:02:29.637Z,66.79
2017-12-09T03:03:38.457Z,67.26
2017-12-09T03:04:47.332Z,67.64
2017-12-09T03:05:56.151Z,67.45
2017-12-09T03:07:04.975Z,67.74
2017-12-09T03:08:13.796Z,67.74
2017-12-09T03:09:22.618Z,66.98
2017-12-09T03:10:31.691Z,67.83
2017-12-09T03:11:40.516Z,67.26
2017-12-09T03:12:49.337Z,67.36
2017-12-09T03:13:58.158Z,67.07
2017-12-09T03:15:06.980Z,67.36
2017-12-09T03:16:15.851Z,66.88
2017-12-09T03:17:24.674Z,66.6
2017-12-09T03:18:33.496Z,66.88
2017-12-09T03:19:42.592Z,66.6
2017-12-09T03:20:51.415Z,66.98
2017-12-09T03:22:00.560Z,66.98
2017-12-09T03:23:09.386Z,66.98
2017-12-09T03:24:18.211Z,66.98
2017-12-09T03:25:27.032Z,66.31
2017-12-09T03:26:35.856Z,66.6
2017-12-09T03:27:44.780Z,66.6
2017-12-09T03:28:53.877Z,66.79
2017-12-09T03:30:02.707Z,66.41
2017-12-09T03:31:11.528Z,65.84
2017-12-09T03:32:20.345Z,65.56
2017-12-09T03:33:29.269Z,64.9
2017-12-09T03:34:38.089Z,64.99
2017-12-09T03:35:47.185Z,64.9
2017-12-09T03:36:56.007Z,64.9
2017-12-09T03:38:04.827Z,64.99
2017-12-09T03:39:13.699Z,64.9
2017-12-09T03:40:22.520Z,65.18
2017-12-09T03:41:31.342Z,65.37
2017-12-09T03:42:40.163Z,65.28
2017-12-09T03:43:48.989Z,64.9
2017-12-09T03:44:57.811Z,64.9
2017-12-09T03:46:06.634Z,64.8
2017-12-09T03:47:15.457Z,64.99
2017-12-09T03:48:24.280Z,64.8
2017-12-09T03:49:33.101Z,64.9
2017-12-09T03:50:41.925Z,64.99
2017-12-09T03:51:51.018Z,65.28
2017-12-09T03:52:59.841Z,65.09
2017-12-09T03:54:08.666Z,64.99
2017-12-09T03:55:17.489Z,64.9
2017-12-09T03:56:26.362Z,64.9
2017-12-09T03:57:35.185Z,65.09
2017-12-09T03:58:44.005Z,65.18
2017-12-09T03:59:52.829Z,64.71
2017-12-09T04:01:01.656Z,65.18
2017-12-09T04:02:10.474Z,64.9
2017-12-09T04:03:19.300Z,64.71
2017-12-09T04:04:28.124Z,64.99
2017-12-09T04:05:36.945Z,64.99
2017-12-09T04:06:45.770Z,64.8
2017-12-09T04:07:54.690Z,64.99
2017-12-09T04:09:03.515Z,64.71
2017-12-09T04:10:12.886Z,64.52
2017-12-09T04:11:21.706Z,64.8
2017-12-09T04:12:30.534Z,65.09
2017-12-09T04:13:39.628Z,64.52
2017-12-09T04:14:48.451Z,64.93
2017-12-09T04:15:57.273Z,65.02
2017-12-09T04:17:06.096Z,64.99
2017-12-09T04:18:15.256Z,64.9
2017-12-09T04:19:24.171Z,64.52
2017-12-09T04:20:32.993Z,64.8
2017-12-09T04:21:41.817Z,64.9
2017-12-09T04:22:50.639Z,64.8
2017-12-09T04:23:59.463Z,64.9
2017-12-09T04:25:08.435Z,64.9
2017-12-09T04:26:17.258Z,64.8
2017-12-09T04:27:26.079Z,64.52
2017-12-09T04:28:34.902Z,64.42
2017-12-09T04:29:43.725Z,64.52
2017-12-09T04:30:52.545Z,64.33
2017-12-09T04:32:01.370Z,64.74
2017-12-09T04:33:10.193Z,64.8
2017-12-09T04:34:19.014Z,64.52
2017-12-09T04:35:27.838Z,64.8
2017-12-09T04:36:36.710Z,63.85
2017-12-09T04:37:45.532Z,63.95
2017-12-09T04:38:54.353Z,63.76
2017-12-09T04:40:03.176Z,63.89
2017-12-09T04:41:11.998Z,64.23
2017-12-09T04:42:20.921Z,64.04
2017-12-09T04:43:30.022Z,64.14
2017-12-09T04:44:39.118Z,63.48
2017-12-09T04:45:47.941Z,63.01
2017-12-09T04:46:56.762Z,63.1
2017-12-09T04:48:05.634Z,63.29
2017-12-09T04:49:14.734Z,63.01
2017-12-09T04:50:23.560Z,62.53
2017-12-09T04:51:32.386Z,62.34
2017-12-09T04:52:41.200Z,62.53
2017-12-09T04:53:50.121Z,62.63
2017-12-09T04:54:58.944Z,62.72
2017-12-09T04:56:07.767Z,62.82
2017-12-09T04:57:16.591Z,62.63
2017-12-09T04:58:25.413Z,62.53
2017-12-09T04:59:34.545Z,62.91
2017-12-09T05:00:43.367Z,62.63
2017-12-09T05:01:52.189Z,62.63
2017-12-09T05:03:01.011Z,62.82
2017-12-09T05:04:09.832Z,62.34
2017-12-09T05:05:18.805Z,61.68
2017-12-09T05:06:27.626Z,61.3
2017-12-09T05:07:36.724Z,61.4
2017-12-09T05:08:45.547Z,61.4
2017-12-09T05:09:54.367Z,61.58
2017-12-09T05:11:03.621Z,61.4
2017-12-09T05:12:12.445Z,61.58
2017-12-09T05:13:21.264Z,61.4
2017-12-09T05:14:30.084Z,61.02
2017-12-09T05:15:38.904Z,60.74
2017-12-09T05:16:47.776Z,60.93
2017-12-09T05:17:56.601Z,60.07
2017-12-09T05:19:05.422Z,59.79
2017-12-09T05:20:14.243Z,59.69
2017-12-09T05:21:23.062Z,59.69
2017-12-09T05:22:32.038Z,59.6
2017-12-09T05:23:40.863Z,59.88
2017-12-09T05:24:49.958Z,59.88
2017-12-09T05:25:58.783Z,59.6
2017-12-09T05:27:07.601Z,59.6
2017-12-09T05:28:16.421Z,59.88
2017-12-09T05:29:25.241Z,59.6
2017-12-09T05:30:34.064Z,59.5
2017-12-09T05:31:42.891Z,59.79
2017-12-09T05:32:51.983Z,59.5
2017-12-09T05:34:00.857Z,59.41
2017-12-09T05:35:09.678Z,59.5
2017-12-09T05:36:18.502Z,59.31
2017-12-09T05:37:27.323Z,59.41
2017-12-09T05:38:36.150Z,58.84
2017-12-09T05:39:45.024Z,58.75
2017-12-09T05:40:54.120Z,58.56
2017-12-09T05:42:02.942Z,58.28
2017-12-09T05:43:12.038Z,56.76
2017-12-09T05:44:21.136Z,55.44
2017-12-09T05:45:30.207Z,48.34
2017-12-09T05:46:39.031Z,43.71
2017-12-09T05:47:47.853Z,41.53
2017-12-09T05:48:56.674Z,39.73
2017-12-09T05:50:05.501Z,38.98
2017-12-09T05:51:14.624Z,38.79
2017-12-09T05:52:23.444Z,38.12
2017-12-09T05:53:32.265Z,37.55
2017-12-09T05:54:41.086Z,37.55
2017-12-09T05:55:49.910Z,37.08
2017-12-09T05:56:59.086Z,36.9
2017-12-09T05:58:08.181Z,36.14
2017-12-09T05:59:17.003Z,36.15
2017-12-09T06:00:25.825Z,36.23
2017-12-09T06:01:34.656Z,36.33
2017-12-09T06:02:43.627Z,36.33
2017-12-09T06:03:52.448Z,36.52
2017-12-09T06:05:01.270Z,36.33
2017-12-09T06:06:10.090Z,36.42
2017-12-09T06:07:18.915Z,36.33
2017-12-09T06:08:28.057Z,36.61
2017-12-09T06:09:37.152Z,37.08
2017-12-09T06:10:45.974Z,37.55
2017-12-09T06:11:54.797Z,37.18
2017-12-09T06:13:03.620Z,36.99
2017-12-09T06:14:12.743Z,37.37
2017-12-09T06:15:21.563Z,37.74
2017-12-09T06:16:30.388Z,37.93
2017-12-09T06:17:39.216Z,37.65
2017-12-09T06:18:48.038Z,37.93
2017-12-09T06:19:56.911Z,38.12
2017-12-09T06:21:05.733Z,38.31
2017-12-09T06:22:14.559Z,37.93
2017-12-09T06:23:23.382Z,37.93
2017-12-09T06:24:32.207Z,37.55
2017-12-09T06:25:41.028Z,37.27
2017-12-09T06:26:50.125Z,36.99
2017-12-09T06:27:58.945Z,36.71
2017-12-09T06:29:07.767Z,36.42
2017-12-09T06:30:16.590Z,36.04
2017-12-09T06:31:25.839Z,36.33
2017-12-09T06:32:34.940Z,36.23
2017-12-09T06:33:43.764Z,36.14
2017-12-09T06:34:52.586Z,36.33
2017-12-09T06:36:01.409Z,36.42
2017-12-09T06:37:10.282Z,36.42
2017-12-09T06:38:19.106Z,36.42
2017-12-09T06:39:27.926Z,36.42
2017-12-09T06:40:36.750Z,36.42
2017-12-09T06:41:45.570Z,36.42
2017-12-09T06:42:54.446Z,36.33
2017-12-09T06:44:03.270Z,36.14
2017-12-09T06:45:12.096Z,36.14
2017-12-09T06:46:21.195Z,35.95
2017-12-09T06:47:30.020Z,35.95
2017-12-09T06:48:38.994Z,35.38
2017-12-09T06:49:47.817Z,35.47
2017-12-09T06:50:56.641Z,35.95
2017-12-09T06:52:05.464Z,35.76
2017-12-09T06:53:14.290Z,35.95
2017-12-09T06:54:23.166Z,35.95
2017-12-09T06:55:31.990Z,35.85
2017-12-09T06:56:40.813Z,35.85
2017-12-09T06:57:49.637Z,36.23
2017-12-09T06:58:58.463Z,36.14
2017-12-09T07:00:07.286Z,35.95
2017-12-09T07:01:16.110Z,36.14
2017-12-09T07:02:24.933Z,35.95
2017-12-09T07:03:33.760Z,36.33
2017-12-09T07:04:42.584Z,36.04
2017-12-09T07:05:51.408Z,36.71
2017-12-09T07:07:00.231Z,36.71
2017-12-09T07:08:09.052Z,36.99
2017-12-09T07:09:18.154Z,37.08
2017-12-09T07:10:26.978Z,37.27
2017-12-09T07:11:35.800Z,37.74
2017-12-09T07:12:44.623Z,37.55
2017-12-09T07:13:53.721Z,37.84
2017-12-09T07:15:02.594Z,37.84
2017-12-09T07:16:11.419Z,37.55
2017-12-09T07:17:20.242Z,37.93
2017-12-09T07:18:29.063Z,37.74
2017-12-09T07:19:37.887Z,37.74
2017-12-09T07:20:46.810Z,37.65
2017-12-09T07:21:55.636Z,37.74
2017-12-09T07:23:04.462Z,37.84
2017-12-09T07:24:13.290Z,37.74
2017-12-09T07:25:22.415Z,38.12
2017-12-09T07:26:31.240Z,37.65
2017-12-09T07:27:40.067Z,37.65
2017-12-09T07:28:48.893Z,37.65
2017-12-09T07:29:57.718Z,37.93
2017-12-09T07:31:06.694Z,37.84
2017-12-09T07:32:15.517Z,37.55
2017-12-09T07:33:24.339Z,37.84
2017-12-09T07:34:33.170Z,38.31
2017-12-09T07:35:41.986Z,38.6
2017-12-09T07:36:51.113Z,38.69
2017-12-09T07:37:59.938Z,38.6
2017-12-09T07:39:08.759Z,38.31
2017-12-09T07:40:17.585Z,38.69
2017-12-09T07:41:26.408Z,38.69
2017-12-09T07:42:35.605Z,38.6
2017-12-09T07:43:44.430Z,38.69
2017-12-09T07:44:53.253Z,38.6
2017-12-09T07:46:02.076Z,37.65
2017-12-09T07:47:10.908Z,37.65
2017-12-09T07:48:19.874Z,37.57
2017-12-09T07:49:28.697Z,37.67
2017-12-09T07:50:37.523Z,38.22
2017-12-09T07:51:46.348Z,37.93
2017-12-09T07:52:55.456Z,37.55
2017-12-09T07:54:04.580Z,37.86
2017-12-09T07:55:13.408Z,37.95
2017-12-09T07:56:22.236Z,38.31
2017-12-09T07:57:31.056Z,37.93
2017-12-09T07:58:39.884Z,38.14
2017-12-09T07:59:49.082Z,37.93
2017-12-09T08:00:57.905Z,37.93
2017-12-09T08:02:06.775Z,37.93
2017-12-09T08:03:15.552Z,37.95
2017-12-09T08:04:24.374Z,37.95
2017-12-09T08:05:33.298Z,37.76
2017-12-09T08:06:42.131Z,37.93
2017-12-09T08:07:50.960Z,37.67
2017-12-09T08:08:59.780Z,37.76
2017-12-09T08:10:08.605Z,38.62
2017-12-09T08:11:17.801Z,38.41
2017-12-09T08:12:26.624Z,38.22
2017-12-09T08:13:35.447Z,38.33
2017-12-09T08:14:44.270Z,38.43
2017-12-09T08:15:53.094Z,38.62
2017-12-09T08:17:02.218Z,38.62
2017-12-09T08:18:11.048Z,39.37
2017-12-09T08:19:20.142Z,39.56
2017-12-09T08:20:28.969Z,39.83
2017-12-09T08:21:37.788Z,39.94
2017-12-09T08:22:46.614Z,39.84
2017-12-09T08:23:55.437Z,40.49
2017-12-09T08:25:04.261Z,40.2
2017-12-09T08:26:13.086Z,40.01
2017-12-09T08:27:21.909Z,40.77
2017-12-09T08:28:30.793Z,40.49
2017-12-09T08:29:40.036Z,39.83
2017-12-09T08:30:49.263Z,40.3
2017-12-09T08:31:58.374Z,40.39
2017-12-09T08:33:07.193Z,40.2
2017-12-09T08:34:16.067Z,40.2
2017-12-09T08:35:24.908Z,40.2
2017-12-09T08:36:33.730Z,40.77
2017-12-09T08:37:42.572Z,40.58
2017-12-09T08:38:51.406Z,40.87
2017-12-09T08:40:00.329Z,40.77
2017-12-09T08:41:09.204Z,40.77
2017-12-09T08:42:18.034Z,40.96
2017-12-09T08:43:26.868Z,40.87
2017-12-09T08:44:35.708Z,41.06
2017-12-09T08:45:44.530Z,40.87
2017-12-09T08:46:53.629Z,40.68
2017-12-09T08:48:02.472Z,40.87
2017-12-09T08:49:11.565Z,40.77
2017-12-09T08:50:20.423Z,40.87
2017-12-09T08:51:29.249Z,41.06
2017-12-09T08:52:38.082Z,40.68
2017-12-09T08:53:46.942Z,40.96
2017-12-09T08:54:55.776Z,40.77
2017-12-09T08:56:04.611Z,41.34
2017-12-09T08:57:13.447Z,41.34
2017-12-09T08:58:22.284Z,41.44
2017-12-09T08:59:31.160Z,41.34
2017-12-09T09:00:39.993Z,41.34
2017-12-09T09:01:48.869Z,41.44
2017-12-09T09:02:57.703Z,41.44
2017-12-09T09:04:06.818Z,41.53
2017-12-09T09:05:15.652Z,41.34
2017-12-09T09:06:24.486Z,41.44
2017-12-09T09:07:33.317Z,41.53
2017-12-09T09:08:42.198Z,41.34
2017-12-09T09:09:51.033Z,41.34
2017-12-09T09:10:59.917Z,41.72
2017-12-09T09:12:08.755Z,41.72
2017-12-09T09:13:17.587Z,41.72
2017-12-09T09:14:26.423Z,41.72
2017-12-09T09:15:35.542Z,41.72
2017-12-09T09:16:44.705Z,41.53
2017-12-09T09:17:53.535Z,41.82
2017-12-09T09:19:02.429Z,41.64
2017-12-09T09:20:11.253Z,41.63
2017-12-09T09:21:20.115Z,41.53
2017-12-09T09:22:29.240Z,41.74
2017-12-09T09:23:38.071Z,41.83
2017-12-09T09:24:46.900Z,41.74
2017-12-09T09:25:55.724Z,41.83
2017-12-09T09:27:04.626Z,41.93
2017-12-09T09:28:13.511Z,41.83
2017-12-09T09:29:22.337Z,42.02
2017-12-09T09:30:31.205Z,42.3
2017-12-09T09:31:40.028Z,42.11
2017-12-09T09:32:48.869Z,42.11
2017-12-09T09:33:57.979Z,42.78
2017-12-09T09:35:06.829Z,42.59
2017-12-09T09:36:15.676Z,42.59
2017-12-09T09:37:24.499Z,42.78
2017-12-09T09:38:33.375Z,42.59
2017-12-09T09:39:42.351Z,42.3
2017-12-09T09:40:51.176Z,42.4
2017-12-09T09:42:00.025Z,43.16
2017-12-09T09:43:08.867Z,43.44
2017-12-09T09:44:17.701Z,44.29
2017-12-09T09:45:26.692Z,44.29
2017-12-09T09:46:35.789Z,44.2
2017-12-09T09:47:44.888Z,44.29
2017-12-09T09:48:53.717Z,44.1
2017-12-09T09:50:02.619Z,44.67
2017-12-09T09:51:11.659Z,44.58
2017-12-09T09:52:20.486Z,45.05
2017-12-09T09:53:29.313Z,45.34
2017-12-09T09:54:38.149Z,45.81
2017-12-09T09:55:46.980Z,45.53
2017-12-09T09:56:55.962Z,45.62
2017-12-09T09:58:05.058Z,45.62
2017-12-09T09:59:13.882Z,45.24
2017-12-09T10:00:22.704Z,44.77
2017-12-09T10:01:31.546Z,45.34
2017-12-09T10:02:40.370Z,45.9
2017-12-09T10:03:49.195Z,45.81
2017-12-09T10:04:58.031Z,46.47
2017-12-09T10:06:06.859Z,45.9
2017-12-09T10:07:15.683Z,45.81
2017-12-09T10:08:24.507Z,46.47
2017-12-09T10:09:33.330Z,46.75
2017-12-09T10:10:42.162Z,46.85
2017-12-09T10:11:50.988Z,47.04
2017-12-09T10:12:59.811Z,47.42
2017-12-09T10:14:08.786Z,46.85
2017-12-09T10:15:17.617Z,47.51
2017-12-09T10:16:26.441Z,47.23
2017-12-09T10:17:35.302Z,46.85
2017-12-09T10:18:44.130Z,47.32
2017-12-09T10:19:52.955Z,46.56
2017-12-09T10:21:02.086Z,47.42
2017-12-09T10:22:10.909Z,47.51
2017-12-09T10:23:19.743Z,46.94
2017-12-09T10:24:28.568Z,47.04
2017-12-09T10:25:37.575Z,46.75
2017-12-09T10:26:46.404Z,47.16
2017-12-09T10:27:55.229Z,46.69
2017-12-09T10:29:04.054Z,46.78
2017-12-09T10:30:12.882Z,47.06
2017-12-09T10:31:21.857Z,47.44
2017-12-09T10:32:30.684Z,48.49
2017-12-09T10:33:39.511Z,48.58
2017-12-09T10:34:48.336Z,48.77
2017-12-09T10:35:57.163Z,49.24
2017-12-09T10:37:06.137Z,48.86
2017-12-09T10:38:14.964Z,49.24
2017-12-09T10:39:23.839Z,48.1
2017-12-09T10:40:32.944Z,48.49
2017-12-09T10:41:41.769Z,48.77
2017-12-09T10:42:50.695Z,49.33
2017-12-09T10:43:59.521Z,49.52
2017-12-09T10:45:08.346Z,49.24
2017-12-09T10:46:17.173Z,49.05
2017-12-09T10:47:26.003Z,48.86
2017-12-09T10:48:34.829Z,49.33
2017-12-09T10:49:43.655Z,49.9
2017-12-09T10:50:52.515Z,50.38
2017-12-09T10:52:01.305Z,50.57
2017-12-09T10:53:10.404Z,50.66
2017-12-09T10:54:19.279Z,50.76
2017-12-09T10:55:28.109Z,51.99
2017-12-09T10:56:36.957Z,51.89
2017-12-09T10:57:45.783Z,52.27
2017-12-09T10:58:54.615Z,52.56
2017-12-09T11:00:03.592Z,52.84
2017-12-09T11:01:12.417Z,52.75
2017-12-09T11:02:21.271Z,52.84
2017-12-09T11:03:30.096Z,52.65
2017-12-09T11:04:38.922Z,53.13
2017-12-09T11:05:47.902Z,54.07
2017-12-09T11:06:57.007Z,54.83
2017-12-09T11:08:05.836Z,54.74
2017-12-09T11:09:14.708Z,54.35
2017-12-09T11:10:23.487Z,54.55
2017-12-09T11:11:32.467Z,54.64
2017-12-09T11:12:41.287Z,54.93
2017-12-09T11:13:50.421Z,54.83
2017-12-09T11:14:59.249Z,54.64
2017-12-09T11:16:08.077Z,54.83
2017-12-09T11:17:17.103Z,55.02
2017-12-09T11:18:25.933Z,54.93
2017-12-09T11:19:34.771Z,55.02
2017-12-09T11:20:43.598Z,54.83
2017-12-09T11:21:52.442Z,55.02
2017-12-09T11:23:01.281Z,54.26
2017-12-09T11:24:10.107Z,54.93
2017-12-09T11:25:18.933Z,54.83
2017-12-09T11:26:27.761Z,54.93
2017-12-09T11:27:36.859Z,54.07
2017-12-09T11:28:45.864Z,54.83
2017-12-09T11:29:54.658Z,56.15
2017-12-09T11:31:03.482Z,56.34
2017-12-09T11:32:12.308Z,57.01
2017-12-09T11:33:21.133Z,56.15
2017-12-09T11:34:30.109Z,56.91
2017-12-09T11:35:38.936Z,55.96
2017-12-09T11:36:47.762Z,56.44
2017-12-09T11:37:56.589Z,57.2
2017-12-09T11:39:05.696Z,57.76
2017-12-09T11:40:14.522Z,58.43
2017-12-09T11:41:23.349Z,58.14
2017-12-09T11:42:32.176Z,57.57
2017-12-09T11:43:41.001Z,57.57
2017-12-09T11:44:49.825Z,57.01
2017-12-09T11:45:58.702Z,57.67
2017-12-09T11:47:07.529Z,57.48
2017-12-09T11:48:16.633Z,57.04
2017-12-09T11:49:25.459Z,56.94
2017-12-09T11:50:34.287Z,56.94
2017-12-09T11:51:43.490Z,57.32
2017-12-09T11:52:52.316Z,57.98
2017-12-09T11:54:01.418Z,57.76
2017-12-09T11:55:10.521Z,56.63
2017-12-09T11:56:19.348Z,56.34
2017-12-09T11:57:28.273Z,56.25
2017-12-09T11:58:37.102Z,55.33
2017-12-09T11:59:46.475Z,56.06
2017-12-09T12:00:55.301Z,55.3
2017-12-09T12:02:04.127Z,55.9
2017-12-09T12:03:12.952Z,55.3
2017-12-09T12:04:21.784Z,55.3
2017-12-09T12:05:30.610Z,55.05
2017-12-09T12:06:39.436Z,54.86
2017-12-09T12:07:48.537Z,54.47
2017-12-09T12:08:57.665Z,55.14
2017-12-09T12:10:06.493Z,55.52
2017-12-09T12:11:15.321Z,55.43
2017-12-09T12:12:24.147Z,54.86
2017-12-09T12:13:33.251Z,54.95
2017-12-09T12:14:42.228Z,55.62
2017-12-09T12:15:51.055Z,55.8
2017-12-09T12:16:59.983Z,55.71
2017-12-09T12:18:08.807Z,55.52
2017-12-09T12:19:17.634Z,55.71
2017-12-09T12:20:26.559Z,54.83
2017-12-09T12:21:35.386Z,55.52
2017-12-09T12:22:44.212Z,54.86
2017-12-09T12:23:53.041Z,55.24
2017-12-09T12:25:01.864Z,55.49
2017-12-09T12:26:10.689Z,55.4
2017-12-09T12:27:19.514Z,55.4
2017-12-09T12:28:28.341Z,55.4
2017-12-09T12:29:37.169Z,55.58
2017-12-09T12:30:45.989Z,55.49
2017-12-09T12:31:55.114Z,55.49
2017-12-09T12:33:03.949Z,55.49
2017-12-09T12:34:12.774Z,55.49
2017-12-09T12:35:21.599Z,56.37
2017-12-09T12:36:30.697Z,55.77
2017-12-09T12:37:39.674Z,55.4
2017-12-09T12:38:48.498Z,55.49
2017-12-09T12:39:57.874Z,55.3
2017-12-09T12:41:06.699Z,55.4
2017-12-09T12:42:15.521Z,55.49
2017-12-09T12:43:24.347Z,55.96
2017-12-09T12:44:33.173Z,55.96
2017-12-09T12:45:42.273Z,55.87
2017-12-09T12:46:51.102Z,56.25
2017-12-09T12:47:59.929Z,56.44
2017-12-09T12:49:08.804Z,55.77
2017-12-09T12:50:17.630Z,56.15
2017-12-09T12:51:26.455Z,56.34
2017-12-09T12:52:35.284Z,56.06
2017-12-09T12:53:44.110Z,56.25
2017-12-09T12:54:53.094Z,55.4
2017-12-09T12:56:02.188Z,54.45
2017-12-09T12:57:11.014Z,54.45
2017-12-09T12:58:19.839Z,55.02
2017-12-09T12:59:28.664Z,54.45
2017-12-09T13:00:37.492Z,53.22
2017-12-09T13:01:46.318Z,53.59
2017-12-09T13:02:55.142Z,53.97
2017-12-09T13:04:03.970Z,54.16
2017-12-09T13:05:13.069Z,53.5
2017-12-09T13:06:21.993Z,53.41
2017-12-09T13:07:31.094Z,53.31
2017-12-09T13:08:39.920Z,52.84
2017-12-09T13:09:49.024Z,52.75
2017-12-09T13:10:57.845Z,53.22
2017-12-09T13:12:06.830Z,53.78
2017-12-09T13:13:15.654Z,53.41
2017-12-09T13:14:24.486Z,54.16
2017-12-09T13:15:33.305Z,53.59
2017-12-09T13:16:42.131Z,53.5
2017-12-09T13:17:51.478Z,53.41
2017-12-09T13:19:00.352Z,53.69
2017-12-09T13:20:09.129Z,53.88
2017-12-09T13:21:17.954Z,54.07
2017-12-09T13:22:26.779Z,53.88
2017-12-09T13:23:35.653Z,53.69
2017-12-09T13:24:44.479Z,53.97
2017-12-09T13:25:53.317Z,53.5
2017-12-09T13:27:02.138Z,53.31
2017-12-09T13:28:10.956Z,53.5
2017-12-09T13:29:19.932Z,53.88
2017-12-09T13:30:28.759Z,53.59
2017-12-09T13:31:37.586Z,53.31
2017-12-09T13:32:46.412Z,53.59
2017-12-09T13:33:55.237Z,53.88
2017-12-09T13:35:04.214Z,53.31
2017-12-09T13:36:13.037Z,53.5
2017-12-09T13:37:21.862Z,52.84
2017-12-09T13:38:30.684Z,52.65
2017-12-09T13:39:39.511Z,52.65
2017-12-09T13:40:48.337Z,52.65
2017-12-09T13:41:57.158Z,52.56
2017-12-09T13:43:05.983Z,52.75
2017-12-09T13:44:14.807Z,52.84
2017-12-09T13:45:23.632Z,52.75
2017-12-09T13:46:32.756Z,52.65
2017-12-09T13:47:41.856Z,52.84
2017-12-09T13:48:50.678Z,52.75
2017-12-09T13:49:59.512Z,53.03
2017-12-09T13:51:08.345Z,52.84
2017-12-09T13:52:17.453Z,52.75
2017-12-09T13:53:26.285Z,52.94
2017-12-09T13:54:35.111Z,52.65
2017-12-09T13:55:43.938Z,52.84
2017-12-09T13:56:52.766Z,52.65
2017-12-09T13:58:01.789Z,52.65
2017-12-09T13:59:10.892Z,52.46
2017-12-09T14:00:19.720Z,52.56
2017-12-09T14:01:28.552Z,52.56
2017-12-09T14:02:37.384Z,52.65
2017-12-09T14:03:46.505Z,52.84
2017-12-09T14:04:55.301Z,52.65
2017-12-09T14:06:04.129Z,52.65
2017-12-09T14:07:13.275Z,52.56
2017-12-09T14:08:22.138Z,52.65
2017-12-09T14:09:31.051Z,52.65
2017-12-09T14:10:40.192Z,52.84
2017-12-09T14:11:49.042Z,52.94
2017-12-09T14:12:57.878Z,52.75
2017-12-09T14:14:06.727Z,52.84
2017-12-09T14:15:15.774Z,52.84
2017-12-09T14:16:24.648Z,52.84
2017-12-09T14:17:33.498Z,52.84
2017-12-09T14:18:42.371Z,52.75
2017-12-09T14:19:51.235Z,52.84
2017-12-09T14:21:00.251Z,52.84
2017-12-09T14:22:09.104Z,52.84
2017-12-09T14:23:17.939Z,52.94
2017-12-09T14:24:26.796Z,53.31
2017-12-09T14:25:35.639Z,53.5
2017-12-09T14:26:44.715Z,52.94
2017-12-09T14:27:53.545Z,52.65
2017-12-09T14:29:02.643Z,53.03
2017-12-09T14:30:11.468Z,53.31
2017-12-09T14:31:20.292Z,53.41
2017-12-09T14:32:29.270Z,53.31
2017-12-09T14:33:38.102Z,53.41
2017-12-09T14:34:46.916Z,53.22
2017-12-09T14:35:55.745Z,53.31
2017-12-09T14:37:04.579Z,53.31
2017-12-09T14:38:13.816Z,52.75
2017-12-09T14:39:22.639Z,52.84
2017-12-09T14:40:31.463Z,52.84
2017-12-09T14:41:40.286Z,52.94
2017-12-09T14:42:49.113Z,53.03
2017-12-09T14:43:58.240Z,53.31
2017-12-09T14:45:07.065Z,52.94
2017-12-09T14:46:15.892Z,52.75
2017-12-09T14:47:24.722Z,53.59
2017-12-09T14:48:33.565Z,53.69
2017-12-09T14:49:42.544Z,53.41
2017-12-09T14:50:51.372Z,53.59
2017-12-09T14:52:00.204Z,53.5